Time;durP1;ratioP1;P1;durP2;ratioP2;P2;SDS_P1;SDS_P2;PMS_P1;PMS_P2;Temp;Humidity;BMP_temperature;BMP_pressure;BME280_temperature;BME280_humidity;BME280_pressure;Samples;Min_cycle;Max_cycle;Signal;HPM_P1;HPM_P2
2022/09/01 00:01:20;;;;;;;1.88;1.00;;;;;;;;;;5095074;28;20038;-77
2022/09/01 00:03:47;;;;;;;1.77;1.00;;;;;;;;;;5093093;28;20542;-77
2022/09/01 00:06:15;;;;;;;3.70;1.05;;;;;;;;;;5094597;28;20081;-77
2022/09/01 00:08:41;;;;;;;2.65;1.20;;;;;;;;;;5094690;28;20099;-77
2022/09/01 00:11:07;;;;;;;3.50;1.10;;;;;;;;;;5092951;28;20035;-78
2022/09/01 00:13:33;;;;;;;3.22;1.10;;;;;;;;;;5094278;28;20457;-77
2022/09/01 00:16:02;;;;;;;5.65;1.30;;;;;;;;;;5094359;28;20032;-77
2022/09/01 00:18:29;;;;;;;6.82;1.20;;;;;;;;;;5094305;28;20069;-77
2022/09/01 00:20:58;;;;;;;3.65;0.90;;;;;;;;;;5094314;28;20111;-77
2022/09/01 00:23:24;;;;;;;2.42;1.20;;;;;;;;;;5095134;28;20059;-77
2022/09/01 00:31:57;;;;;;;2.63;1.00;;;;;;;;;;5114421;28;20039;-77
2022/09/01 00:34:23;;;;;;;4.63;1.10;;;;;;;;;;5114302;28;20072;-77
2022/09/01 00:36:49;;;;;;;4.82;1.30;;;;;;;;;;5114285;28;20069;-77
2022/09/01 01:07:52;;;;;;;3.05;1.30;;;;;;;;;;5069277;28;20146;-77
2022/09/01 01:10:18;;;;;;;2.92;1.55;;;;;;;;;;5053164;28;20029;-77
2022/09/01 01:12:45;;;;;;;3.45;1.60;;;;;;;;;;5052699;28;20357;-76
2022/09/01 01:15:12;;;;;;;4.88;1.40;;;;;;;;;;5051772;28;20071;-77
2022/09/01 01:23:53;;;;;;;3.45;1.50;;;;;;;;;;5053978;28;20051;-77
2022/09/01 01:26:19;;;;;;;8.77;2.20;;;;;;;;;;5072775;28;20385;-77
2022/09/01 01:28:47;;;;;;;3.80;1.40;;;;;;;;;;5072694;28;20020;-77
2022/09/01 01:31:15;;;;;;;5.75;1.80;;;;;;;;;;5072674;28;20071;-77
2022/09/01 01:33:44;;;;;;;5.00;1.60;;;;;;;;;;5071202;28;20020;-76
2022/09/01 01:36:12;;;;;;;1.60;1.17;;;;;;;;;;5071816;28;20364;-76
2022/09/01 01:38:42;;;;;;;2.28;1.35;;;;;;;;;;5072691;28;20028;-76
2022/09/01 01:41:08;;;;;;;4.60;1.50;;;;;;;;;;5072359;28;20025;-76
2022/09/01 01:43:36;;;;;;;3.88;1.30;;;;;;;;;;5072326;28;20025;-77
2022/09/01 01:46:04;;;;;;;4.22;1.30;;;;;;;;;;5072403;28;20020;-76
2022/09/01 01:48:33;;;;;;;3.25;1.40;;;;;;;;;;5072278;28;20037;-76
2022/09/01 01:51:00;;;;;;;3.60;1.35;;;;;;;;;;5072315;28;20025;-77
2022/09/01 01:53:26;;;;;;;4.90;1.60;;;;;;;;;;5072229;28;20036;-77
2022/09/01 01:55:52;;;;;;;5.53;1.60;;;;;;;;;;5072168;28;20021;-76
2022/09/01 01:58:20;;;;;;;4.95;1.52;;;;;;;;;;5072083;28;20029;-76
2022/09/01 02:00:47;;;;;;;4.80;1.95;;;;;;;;;;5072080;28;20017;-76
2022/09/01 02:03:31;;;;;;;3.45;1.30;;;;;;;;;;5072053;28;20055;-76
2022/09/01 02:06:03;;;;;;;3.20;1.30;;;;;;;;;;5071971;28;20085;-76
2022/09/01 02:08:29;;;;;;;4.10;1.42;;;;;;;;;;5086934;28;20501;-76
2022/09/01 02:10:56;;;;;;;3.60;1.60;;;;;;;;;;5111081;28;20035;-76
2022/09/01 02:13:29;;;;;;;5.97;1.30;;;;;;;;;;5112690;28;20054;-76
2022/09/01 02:15:57;;;;;;;2.70;1.30;;;;;;;;;;5112598;28;20034;-76
2022/09/01 02:18:26;;;;;;;2.92;1.73;;;;;;;;;;5112422;28;20012;-76
2022/09/01 02:20:53;;;;;;;5.40;1.63;;;;;;;;;;5112117;28;20466;-76
2022/09/01 02:23:22;;;;;;;4.63;1.38;;;;;;;;;;5112446;28;20027;-76
2022/09/01 02:25:49;;;;;;;4.57;1.58;;;;;;;;;;5112409;28;20047;-77
2022/09/01 02:28:17;;;;;;;6.28;1.50;;;;;;;;;;5110712;28;20020;-76
2022/09/01 02:30:48;;;;;;;3.45;1.42;;;;;;;;;;5112118;28;20023;-77
2022/09/01 02:33:17;;;;;;;3.20;1.27;;;;;;;;;;5112201;28;20069;-77
2022/09/01 02:35:54;;;;;;;3.22;1.70;;;;;;;;;;5112185;28;20449;-76
2022/09/01 02:38:25;;;;;;;2.70;1.40;;;;;;;;;;5110681;28;20035;-76
2022/09/01 02:40:52;;;;;;;4.65;1.40;;;;;;;;;;5112110;28;20031;-76
2022/09/01 02:43:19;;;;;;;3.97;1.50;;;;;;;;;;5112052;28;20020;-76
2022/09/01 02:45:53;;;;;;;4.47;1.42;;;;;;;;;;5111959;28;20016;-76
2022/09/01 02:48:21;;;;;;;2.08;1.38;;;;;;;;;;5111801;28;20024;-76
2022/09/01 02:50:48;;;;;;;2.65;1.30;;;;;;;;;;5111873;28;20068;-77
2022/09/01 02:53:14;;;;;;;6.97;1.40;;;;;;;;;;5111835;28;20020;-76
2022/09/01 02:55:40;;;;;;;6.45;1.50;;;;;;;;;;5112012;28;20020;-76
2022/09/01 02:58:15;;;;;;;5.10;1.40;;;;;;;;;;5111896;28;20023;-76
2022/09/01 03:00:42;;;;;;;4.03;1.42;;;;;;;;;;5111923;28;20146;-76
2022/09/01 03:03:08;;;;;;;5.20;1.60;;;;;;;;;;5094595;28;20090;-77
2022/09/01 03:05:34;;;;;;;3.78;1.40;;;;;;;;;;5091418;28;20520;-76
2022/09/01 03:08:02;;;;;;;2.75;1.33;;;;;;;;;;5091452;28;20509;-76
2022/09/01 03:10:31;;;;;;;3.67;1.50;;;;;;;;;;5091483;28;20106;-76
2022/09/01 03:13:01;;;;;;;3.22;1.55;;;;;;;;;;5091085;28;20119;-76
2022/09/01 03:15:27;;;;;;;3.00;1.40;;;;;;;;;;5091292;28;20028;-76
2022/09/01 03:17:54;;;;;;;5.35;1.98;;;;;;;;;;5091248;28;20066;-77
2022/09/01 03:20:20;;;;;;;3.13;1.60;;;;;;;;;;5089781;28;20466;-77
2022/09/01 03:22:47;;;;;;;4.28;1.60;;;;;;;;;;5091331;28;20028;-77
2022/09/01 03:25:13;;;;;;;5.57;1.63;;;;;;;;;;5100330;28;20416;-76
2022/09/01 03:27:40;;;;;;;2.38;1.30;;;;;;;;;;5111475;28;20027;-77
2022/09/01 03:30:06;;;;;;;3.75;1.70;;;;;;;;;;5111623;28;20042;-76
2022/09/01 03:32:32;;;;;;;1.92;1.30;;;;;;;;;;5109980;28;20028;-76
2022/09/01 03:34:59;;;;;;;4.43;1.73;;;;;;;;;;5111604;28;20038;-76
2022/09/01 03:37:25;;;;;;;3.00;1.63;;;;;;;;;;5110207;28;20110;-76
2022/09/01 03:39:51;;;;;;;6.55;1.58;;;;;;;;;;5108333;28;20020;-77
2022/09/01 03:42:21;;;;;;;5.80;1.52;;;;;;;;;;5091009;28;20103;-76
2022/09/01 03:44:48;;;;;;;5.43;1.67;;;;;;;;;;5089663;28;20081;-76
2022/09/01 03:47:14;;;;;;;5.07;1.90;;;;;;;;;;5090962;28;20036;-76
2022/09/01 03:49:42;;;;;;;4.00;1.50;;;;;;;;;;5089783;28;20024;-76
2022/09/01 03:52:09;;;;;;;4.80;1.90;;;;;;;;;;5091351;28;20107;-76
2022/09/01 03:54:35;;;;;;;3.55;1.65;;;;;;;;;;5091129;28;20020;-76
2022/09/01 03:57:04;;;;;;;3.95;1.80;;;;;;;;;;5090847;28;20051;-76
2022/09/01 03:59:30;;;;;;;3.30;1.50;;;;;;;;;;5093146;28;20024;-76
2022/09/01 04:01:57;;;;;;;4.20;1.50;;;;;;;;;;5094580;28;20494;-77
2022/09/01 04:04:23;;;;;;;4.47;1.55;;;;;;;;;;5093129;28;20024;-76
2022/09/01 04:06:49;;;;;;;7.97;1.60;;;;;;;;;;5094389;28;20021;-76
2022/09/01 04:09:15;;;;;;;6.13;1.60;;;;;;;;;;5094312;28;20051;-77
2022/09/01 04:11:44;;;;;;;4.13;1.60;;;;;;;;;;5094346;28;20086;-77
2022/09/01 04:14:11;;;;;;;5.30;1.52;;;;;;;;;;5094473;28;20031;-76
2022/09/01 04:19:26;;;;;;;3.15;1.48;;;;;;;;;;5099646;28;20050;-76
2022/09/01 04:21:53;;;;;;;2.92;1.48;;;;;;;;;;5114717;28;20019;-76
2022/09/01 04:24:22;;;;;;;2.15;1.27;;;;;;;;;;5114527;28;20032;-76
2022/09/01 04:26:48;;;;;;;4.28;1.50;;;;;;;;;;5114682;28;20020;-76
2022/09/01 04:29:18;;;;;;;5.55;1.38;;;;;;;;;;5113171;28;20028;-76
2022/09/01 04:31:44;;;;;;;4.28;1.40;;;;;;;;;;5112987;28;20027;-77
2022/09/01 04:34:13;;;;;;;8.20;1.33;;;;;;;;;;5112931;28;20059;-76
2022/09/01 04:36:43;;;;;;;3.55;1.40;;;;;;;;;;5114633;28;20019;-76
2022/09/01 04:39:11;;;;;;;7.00;1.42;;;;;;;;;;5112855;28;20026;-76
2022/09/01 04:41:38;;;;;;;2.35;1.17;;;;;;;;;;5114190;28;20080;-76
2022/09/01 04:44:05;;;;;;;3.75;1.40;;;;;;;;;;5114069;28;20077;-77
2022/09/01 04:46:34;;;;;;;4.32;1.90;;;;;;;;;;5112606;28;20385;-76
2022/09/01 04:49:05;;;;;;;6.40;1.45;;;;;;;;;;5114259;28;20046;-76
2022/09/01 04:51:32;;;;;;;3.90;1.20;;;;;;;;;;5114125;28;20046;-76
2022/09/01 04:53:58;;;;;;;3.95;1.23;;;;;;;;;;5114016;28;20030;-77
2022/09/01 04:56:25;;;;;;;5.45;1.45;;;;;;;;;;5114036;28;20073;-76
2022/09/01 04:58:55;;;;;;;5.90;1.17;;;;;;;;;;5112337;28;20028;-76
2022/09/01 05:01:23;;;;;;;4.82;1.20;;;;;;;;;;5111434;28;20496;-76
2022/09/01 05:03:55;;;;;;;6.53;1.23;;;;;;;;;;5093533;28;20202;-77
2022/09/01 05:06:21;;;;;;;5.18;1.17;;;;;;;;;;5093259;28;20027;-76
2022/09/01 05:08:48;;;;;;;5.93;1.00;;;;;;;;;;5091618;28;20507;-76
2022/09/01 05:11:16;;;;;;;3.80;1.23;;;;;;;;;;5093133;28;20024;-76
2022/09/01 05:13:46;;;;;;;3.28;0.88;;;;;;;;;;5093164;28;20039;-77
2022/09/01 05:16:13;;;;;;;3.00;1.30;;;;;;;;;;5093127;28;20016;-76
2022/09/01 05:18:43;;;;;;;3.10;1.35;;;;;;;;;;5092889;28;20478;-76
2022/09/01 05:21:09;;;;;;;1.98;1.15;;;;;;;;;;5091552;28;20070;-76
2022/09/01 05:23:36;;;;;;;5.63;1.20;;;;;;;;;;5092994;28;20028;-77
2022/09/01 05:26:03;;;;;;;1.90;1.10;;;;;;;;;;5103282;28;20051;-77
2022/09/01 05:28:29;;;;;;;2.38;1.40;;;;;;;;;;5113164;28;20031;-77
2022/09/01 05:30:55;;;;;;;2.05;1.00;;;;;;;;;;5113070;28;20080;-76
2022/09/01 05:33:22;;;;;;;6.30;1.23;;;;;;;;;;5111491;28;20024;-76
2022/09/01 05:35:55;;;;;;;7.72;1.40;;;;;;;;;;5113140;28;20024;-76
2022/09/01 05:38:24;;;;;;;4.03;1.00;;;;;;;;;;5113186;28;20030;-76
2022/09/01 05:41:07;;;;;;;5.93;1.48;;;;;;;;;;5101632;28;20032;-76
2022/09/01 05:43:33;;;;;;;6.65;1.15;;;;;;;;;;5091122;28;20531;-77
2022/09/01 05:45:59;;;;;;;5.45;1.40;;;;;;;;;;5091340;28;20355;-77
2022/09/01 05:48:30;;;;;;;9.88;1.27;;;;;;;;;;5092540;28;20343;-76
2022/09/01 05:50:58;;;;;;;2.20;0.95;;;;;;;;;;5092626;28;20024;-76
2022/09/01 05:53:25;;;;;;;3.45;1.27;;;;;;;;;;5092420;28;20021;-77
2022/09/01 05:55:56;;;;;;;3.67;1.08;;;;;;;;;;5092366;28;20024;-76
2022/09/01 05:58:26;;;;;;;7.55;1.15;;;;;;;;;;5091021;28;20073;-77
2022/09/01 06:00:55;;;;;;;4.95;1.10;;;;;;;;;;5092363;28;20016;-76
2022/09/01 06:03:23;;;;;;;2.08;1.00;;;;;;;;;;5092095;28;20493;-77
2022/09/01 06:05:51;;;;;;;2.55;1.20;;;;;;;;;;5092275;28;20024;-76
2022/09/01 06:08:22;;;;;;;1.92;1.00;;;;;;;;;;5090649;28;20095;-76
2022/09/01 06:10:49;;;;;;;4.38;1.00;;;;;;;;;;5090897;28;20470;-77
2022/09/01 06:13:15;;;;;;;4.10;1.10;;;;;;;;;;5092081;28;20032;-76
2022/09/01 06:15:43;;;;;;;4.75;1.15;;;;;;;;;;5092147;28;20413;-77
2022/09/01 06:18:10;;;;;;;7.68;1.08;;;;;;;;;;5091924;28;20035;-77
2022/09/01 06:20:42;;;;;;;2.78;0.90;;;;;;;;;;5090501;28;20085;-76
2022/09/01 06:23:11;;;;;;;3.70;1.10;;;;;;;;;;5091588;28;20016;-77
2022/09/01 06:25:38;;;;;;;5.00;0.88;;;;;;;;;;5099104;28;20027;-76
2022/09/01 06:28:06;;;;;;;2.60;0.80;;;;;;;;;;5112161;28;20016;-76
2022/09/01 06:30:35;;;;;;;2.67;0.90;;;;;;;;;;5110644;28;20026;-76
2022/09/01 06:33:01;;;;;;;2.50;1.20;;;;;;;;;;5112139;28;20035;-76
2022/09/01 06:35:28;;;;;;;2.47;0.80;;;;;;;;;;5112069;28;20027;-76
2022/09/01 06:37:55;;;;;;;4.03;0.88;;;;;;;;;;5112113;28;20024;-77
2022/09/01 06:40:24;;;;;;;4.25;0.90;;;;;;;;;;5112040;28;20028;-77
2022/09/01 06:42:51;;;;;;;12.48;0.88;;;;;;;;;;5111923;28;20358;-77
2022/09/01 06:45:19;;;;;;;11.77;1.10;;;;;;;;;;5112038;28;20023;-76
2022/09/01 06:47:46;;;;;;;5.60;1.30;;;;;;;;;;5111682;28;20019;-77
2022/09/01 06:50:14;;;;;;;12.50;1.25;;;;;;;;;;5111796;28;20016;-76
2022/09/01 06:52:41;;;;;;;6.80;1.20;;;;;;;;;;5111887;28;20106;-77
2022/09/01 06:55:08;;;;;;;4.45;1.00;;;;;;;;;;5111939;28;20411;-76
2022/09/01 06:57:34;;;;;;;4.82;0.80;;;;;;;;;;5110404;28;20020;-76
2022/09/01 07:00:06;;;;;;;4.30;0.95;;;;;;;;;;5111834;28;20028;-77
2022/09/01 07:02:32;;;;;;;3.20;0.70;;;;;;;;;;5099253;28;20036;-76
2022/09/01 07:04:59;;;;;;;3.67;0.77;;;;;;;;;;5091541;28;20024;-76
2022/09/01 07:07:29;;;;;;;1.58;0.77;;;;;;;;;;5091380;28;20064;-76
2022/09/01 07:09:55;;;;;;;4.05;1.15;;;;;;;;;;5091200;28;20041;-76
2022/09/01 07:12:22;;;;;;;5.38;0.75;;;;;;;;;;5091025;28;20031;-76
2022/09/01 07:14:48;;;;;;;2.83;0.60;;;;;;;;;;5091164;28;20478;-77
2022/09/01 07:17:14;;;;;;;1.85;0.82;;;;;;;;;;5091172;28;20020;-77
2022/09/01 07:19:40;;;;;;;6.75;0.70;;;;;;;;;;5091164;28;20078;-77
2022/09/01 07:22:06;;;;;;;5.82;0.85;;;;;;;;;;5091199;28;20154;-76
2022/09/01 07:24:33;;;;;;;6.07;0.95;;;;;;;;;;5091163;28;20480;-76
2022/09/01 07:26:59;;;;;;;1.73;0.55;;;;;;;;;;5106597;28;20027;-77
2022/09/01 07:29:25;;;;;;;6.47;0.65;;;;;;;;;;5111444;28;20027;-77
2022/09/01 07:31:54;;;;;;;9.30;0.70;;;;;;;;;;5110035;28;20035;-77
2022/09/01 07:34:20;;;;;;;8.68;0.93;;;;;;;;;;5113505;28;20420;-76
2022/09/01 07:36:46;;;;;;;5.03;0.80;;;;;;;;;;5115619;28;20026;-77
2022/09/01 07:39:13;;;;;;;2.38;0.85;;;;;;;;;;5115391;28;20442;-77
2022/09/01 07:41:40;;;;;;;2.55;0.80;;;;;;;;;;5115129;28;20066;-76
2022/09/01 07:44:09;;;;;;;6.50;0.77;;;;;;;;;;5115228;28;20110;-77
2022/09/01 07:46:35;;;;;;;2.65;1.10;;;;;;;;;;5115161;28;20035;-77
2022/09/01 07:49:02;;;;;;;2.63;0.80;;;;;;;;;;5115095;28;20107;-76
2022/09/01 07:51:29;;;;;;;3.92;0.93;;;;;;;;;;5115172;28;20154;-77
2022/09/01 07:53:56;;;;;;;5.18;0.90;;;;;;;;;;5114884;28;20106;-76
2022/09/01 07:56:23;;;;;;;4.22;0.80;;;;;;;;;;5115031;28;20031;-77
2022/09/01 07:58:50;;;;;;;4.13;0.75;;;;;;;;;;5114876;28;20506;-77
2022/09/01 08:01:20;;;;;;;5.57;0.88;;;;;;;;;;5113522;28;20076;-77
2022/09/01 08:03:48;;;;;;;3.45;0.80;;;;;;;;;;5115043;28;20031;-77
2022/09/01 08:06:20;;;;;;;0.80;0.50;;;;;;;;;;5114782;28;20028;-77
2022/09/01 08:08:49;;;;;;;7.25;0.70;;;;;;;;;;5114848;28;20047;-77
2022/09/01 08:11:21;;;;;;;2.83;0.73;;;;;;;;;;5114887;28;20031;-77
2022/09/01 08:13:47;;;;;;;5.57;0.82;;;;;;;;;;5113266;28;20327;-77
2022/09/01 08:16:14;;;;;;;5.18;0.70;;;;;;;;;;5114780;28;20092;-77
2022/09/01 08:18:40;;;;;;;2.85;0.93;;;;;;;;;;5114705;28;20103;-77
2022/09/01 08:21:09;;;;;;;1.55;0.80;;;;;;;;;;5113005;28;20069;-77
2022/09/01 08:23:36;;;;;;;12.60;1.05;;;;;;;;;;5114506;28;20068;-77
2022/09/01 08:26:07;;;;;;;3.13;0.90;;;;;;;;;;5113005;28;20545;-76
2022/09/01 08:28:33;;;;;;;4.82;0.70;;;;;;;;;;5114289;28;20073;-77
2022/09/01 08:31:00;;;;;;;3.95;1.25;;;;;;;;;;5114290;28;20446;-77
2022/09/01 08:33:26;;;;;;;1.83;0.50;;;;;;;;;;5114113;28;20019;-77
2022/09/01 08:35:53;;;;;;;5.65;0.90;;;;;;;;;;5114195;28;20381;-76
2022/09/01 08:38:19;;;;;;;1.42;0.70;;;;;;;;;;5114076;28;20031;-77
2022/09/01 08:40:50;;;;;;;3.83;0.73;;;;;;;;;;5113991;28;20015;-77
2022/09/01 08:43:25;;;;;;;3.33;0.50;;;;;;;;;;5113999;28;20034;-77
2022/09/01 08:45:56;;;;;;;3.92;0.65;;;;;;;;;;5113521;28;20035;-77
2022/09/01 08:48:42;;;;;;;1.45;0.80;;;;;;;;;;5113935;28;20024;-77
2022/09/01 08:51:35;;;;;;;2.08;0.60;;;;;;;;;;5113987;28;20077;-77
2022/09/01 08:54:01;;;;;;;3.92;0.60;;;;;;;;;;5110092;28;20044;-77
2022/09/01 08:56:27;;;;;;;1.17;0.60;;;;;;;;;;5113992;28;20035;-77
2022/09/01 08:58:53;;;;;;;1.15;0.70;;;;;;;;;;5113814;28;20047;-77
2022/09/01 09:01:28;;;;;;;2.17;0.57;;;;;;;;;;5111562;28;20077;-77
2022/09/01 09:03:56;;;;;;;3.10;0.80;;;;;;;;;;5093291;28;20576;-77
2022/09/01 09:06:53;;;;;;;2.90;0.43;;;;;;;;;;5091541;28;20032;-77
2022/09/01 09:09:19;;;;;;;5.43;0.65;;;;;;;;;;5076469;28;20494;-77
2022/09/01 09:12:01;;;;;;;4.63;0.80;;;;;;;;;;5093122;28;20084;-77
2022/09/01 09:14:43;;;;;;;3.10;0.77;;;;;;;;;;5092950;28;20025;-77
2022/09/01 09:17:09;;;;;;;1.52;0.50;;;;;;;;;;5092928;28;20020;-76
2022/09/01 09:19:40;;;;;;;2.80;0.60;;;;;;;;;;5091422;28;20434;-77
2022/09/01 09:22:09;;;;;;;2.35;0.60;;;;;;;;;;5092956;28;20020;-77
2022/09/01 09:24:50;;;;;;;3.28;0.68;;;;;;;;;;5092920;28;20061;-77
2022/09/01 09:27:18;;;;;;;3.83;0.68;;;;;;;;;;5106319;28;20122;-77
2022/09/01 09:30:04;;;;;;;6.28;0.85;;;;;;;;;;5111591;28;20046;-77
2022/09/01 09:32:49;;;;;;;1.65;0.40;;;;;;;;;;5112627;28;20088;-77
2022/09/01 09:35:36;;;;;;;0.95;0.40;;;;;;;;;;5112951;28;20034;-76
2022/09/01 09:38:27;;;;;;;1.63;0.57;;;;;;;;;;5112637;28;20504;-78
2022/09/01 09:41:00;;;;;;;2.30;0.70;;;;;;;;;;5108199;28;20431;-77
2022/09/01 09:43:26;;;;;;;;;;;;;;;;;;5091319;28;20042;-77
2022/09/01 09:46:12;;;;;;;0.93;0.40;;;;;;;;;;5091100;28;19904;-77
2022/09/01 09:48:38;;;;;;;4.57;0.50;;;;;;;;;;5092228;28;20043;-77
2022/09/01 09:51:25;;;;;;;0.85;0.40;;;;;;;;;;5092333;28;20680;-77
2022/09/01 09:53:51;;;;;;;1.58;0.60;;;;;;;;;;5090882;28;20043;-77
2022/09/01 09:56:18;;;;;;;5.22;0.45;;;;;;;;;;5091570;28;20494;-77
2022/09/01 09:58:45;;;;;;;1.10;0.40;;;;;;;;;;5092093;28;20017;-77
2022/09/01 10:01:15;;;;;;;1.35;0.57;;;;;;;;;;5092143;28;20016;-77
2022/09/01 10:03:49;;;;;;;3.33;0.50;;;;;;;;;;5092095;28;20031;-77
2022/09/01 10:06:30;;;;;;;2.90;0.32;;;;;;;;;;5091939;28;20024;-77
2022/09/01 10:08:57;;;;;;;2.53;0.57;;;;;;;;;;5091861;28;20036;-77
2022/09/01 10:11:33;;;;;;;1.55;0.50;;;;;;;;;;5091913;28;20123;-77
2022/09/01 10:13:59;;;;;;;2.88;0.55;;;;;;;;;;5091924;28;20236;-78
2022/09/01 10:16:27;;;;;;;1.17;0.50;;;;;;;;;;5091708;28;20031;-77
2022/09/01 10:18:59;;;;;;;0.85;0.60;;;;;;;;;;5091603;28;20130;-77
2022/09/01 10:21:31;;;;;;;6.47;0.98;;;;;;;;;;5091449;28;20027;-77
2022/09/01 10:23:58;;;;;;;4.97;0.68;;;;;;;;;;5091866;28;20020;-77
2022/09/01 10:26:24;;;;;;;3.30;0.82;;;;;;;;;;5095653;28;20524;-77
2022/09/01 10:28:59;;;;;;;6.05;0.68;;;;;;;;;;5112001;28;20059;-77
2022/09/01 10:31:25;;;;;;;1.15;0.57;;;;;;;;;;5111847;28;20327;-77
2022/09/01 10:33:51;;;;;;;2.67;0.40;;;;;;;;;;5111745;28;20026;-76
2022/09/01 10:36:18;;;;;;;2.05;0.50;;;;;;;;;;5111683;28;20051;-77
2022/09/01 10:38:44;;;;;;;3.83;0.43;;;;;;;;;;5111777;28;20108;-77
2022/09/01 10:41:32;;;;;;;1.33;0.50;;;;;;;;;;5111954;28;20027;-77
2022/09/01 10:44:08;;;;;;;0.85;0.47;;;;;;;;;;5111666;28;20129;-77
2022/09/01 10:46:39;;;;;;;2.53;0.50;;;;;;;;;;5110393;28;20031;-77
2022/09/01 10:49:13;;;;;;;4.70;0.50;;;;;;;;;;5111593;28;20031;-78
2022/09/01 10:51:43;;;;;;;1.05;0.50;;;;;;;;;;5112070;28;20024;-77
2022/09/01 10:54:29;;;;;;;1.00;0.40;;;;;;;;;;5111510;28;20058;-78
2022/09/01 10:56:56;;;;;;;3.00;0.40;;;;;;;;;;5110282;28;20020;-77
2022/09/01 10:59:23;;;;;;;0.93;0.30;;;;;;;;;;5111520;28;20427;-78
2022/09/01 11:01:49;;;;;;;0.93;0.38;;;;;;;;;;5105574;28;20028;-77
2022/09/01 11:04:30;;;;;;;8.30;0.50;;;;;;;;;;5089735;28;20021;-77
2022/09/01 11:07:01;;;;;;;2.22;0.60;;;;;;;;;;5089931;28;20390;-76
2022/09/01 11:09:36;;;;;;;1.70;0.47;;;;;;;;;;5095100;28;20457;-76
2022/09/01 11:12:20;;;;;;;1.50;0.47;;;;;;;;;;5093980;28;20071;-77
2022/09/01 11:15:07;;;;;;;1.42;0.50;;;;;;;;;;5095373;28;20020;-77
2022/09/01 11:17:37;;;;;;;3.72;0.50;;;;;;;;;;5087941;28;20053;-77
2022/09/01 11:20:09;;;;;;;1.65;0.40;;;;;;;;;;5095133;28;20407;-77
2022/09/01 11:22:37;;;;;;;3.08;0.50;;;;;;;;;;5094991;28;20016;-77
2022/09/01 11:25:32;;;;;;;4.75;0.63;;;;;;;;;;5094999;28;20024;-77
2022/09/01 11:28:10;;;;;;;2.25;0.65;;;;;;;;;;5109133;28;20059;-77
2022/09/01 11:30:36;;;;;;;0.82;0.40;;;;;;;;;;5115519;28;20624;-77
2022/09/01 11:33:17;;;;;;;0.82;0.50;;;;;;;;;;5115317;28;20625;-78
2022/09/01 11:35:44;;;;;;;2.33;0.33;;;;;;;;;;5115668;28;20085;-77
2022/09/01 11:38:12;;;;;;;5.13;1.30;;;;;;;;;;5115295;28;20253;-77
2022/09/01 11:40:38;;;;;;;9.27;0.85;;;;;;;;;;5115367;28;20024;-77
2022/09/01 11:43:06;;;;;;;3.63;0.95;;;;;;;;;;5115197;28;20119;-77
2022/09/01 11:45:36;;;;;;;1.38;0.73;;;;;;;;;;5113706;28;20051;-77
2022/09/01 11:48:05;;;;;;;4.22;0.50;;;;;;;;;;5114900;28;20046;-77
2022/09/01 11:50:33;;;;;;;2.55;0.43;;;;;;;;;;5115078;28;20032;-77
2022/09/01 11:53:02;;;;;;;1.13;0.40;;;;;;;;;;5114731;28;20032;-77
2022/09/01 11:55:35;;;;;;;1.48;0.50;;;;;;;;;;5113536;28;20428;-77
2022/09/01 11:58:02;;;;;;;1.15;0.50;;;;;;;;;;5113600;28;20047;-77
2022/09/01 12:00:30;;;;;;;3.60;0.45;;;;;;;;;;5115066;28;20043;-77
2022/09/01 12:02:56;;;;;;;4.65;0.50;;;;;;;;;;5115067;28;20046;-78
2022/09/01 12:05:24;;;;;;;4.63;1.48;;;;;;;;;;5113472;28;20031;-77
2022/09/01 12:07:51;;;;;;;1.58;0.50;;;;;;;;;;5114593;28;20028;-79
2022/09/01 12:10:25;;;;;;;4.78;0.80;;;;;;;;;;5114895;28;20087;-77
2022/09/01 12:12:59;;;;;;;1.42;0.50;;;;;;;;;;5114585;28;20373;-78
2022/09/01 12:15:26;;;;;;;2.15;0.70;;;;;;;;;;5113298;28;20233;-77
2022/09/01 12:17:52;;;;;;;1.48;0.50;;;;;;;;;;5114202;28;20505;-77
2022/09/01 12:20:21;;;;;;;1.20;0.50;;;;;;;;;;5098844;28;20024;-78
2022/09/01 12:22:48;;;;;;;2.60;0.60;;;;;;;;;;5094090;28;20032;-77
2022/09/01 12:25:21;;;;;;;3.03;0.50;;;;;;;;;;5094343;28;20032;-77
2022/09/01 12:27:48;;;;;;;1.23;0.50;;;;;;;;;;5106878;28;20119;-77
2022/09/01 12:30:14;;;;;;;1.80;0.60;;;;;;;;;;5114484;28;20028;-77
2022/09/01 12:32:41;;;;;;;1.90;0.50;;;;;;;;;;5114426;28;20027;-78
2022/09/01 12:35:16;;;;;;;2.47;0.60;;;;;;;;;;5112642;28;20377;-77
2022/09/01 12:37:43;;;;;;;0.70;0.60;;;;;;;;;;5114399;28;20051;-78
2022/09/01 12:40:21;;;;;;;0.90;0.40;;;;;;;;;;5114336;28;20026;-78
2022/09/01 12:42:51;;;;;;;0.82;0.50;;;;;;;;;;5114058;28;20031;-77
2022/09/01 12:45:35;;;;;;;4.05;0.50;;;;;;;;;;5114161;28;20035;-78
2022/09/01 12:48:01;;;;;;;2.00;0.50;;;;;;;;;;5114118;28;20500;-77
2022/09/01 12:50:27;;;;;;;1.45;0.50;;;;;;;;;;5113867;28;20382;-78
2022/09/01 12:52:57;;;;;;;2.10;0.80;;;;;;;;;;5113900;28;20024;-77
2022/09/01 12:55:25;;;;;;;9.25;0.60;;;;;;;;;;5113658;28;20044;-78
2022/09/01 12:57:52;;;;;;;1.48;0.70;;;;;;;;;;5113717;28;20509;-78
2022/09/01 13:00:39;;;;;;;1.13;0.50;;;;;;;;;;5113667;28;20022;-77
2022/09/01 13:03:13;;;;;;;3.65;0.60;;;;;;;;;;5099225;28;20071;-78
2022/09/01 13:05:42;;;;;;;2.33;0.50;;;;;;;;;;5113839;28;20020;-78
2022/09/01 13:08:12;;;;;;;3.67;0.77;;;;;;;;;;5113233;28;20373;-78
2022/09/01 13:10:41;;;;;;;4.38;1.00;;;;;;;;;;5112078;28;20478;-78
2022/09/01 13:13:07;;;;;;;6.82;0.68;;;;;;;;;;5113569;28;20016;-77
2022/09/01 13:15:34;;;;;;;2.28;0.63;;;;;;;;;;5113400;28;20538;-77
2022/09/01 13:18:00;;;;;;;3.78;0.60;;;;;;;;;;5111778;28;20028;-77
2022/09/01 13:20:26;;;;;;;1.58;0.60;;;;;;;;;;5112981;28;20560;-77
2022/09/01 13:22:53;;;;;;;10.43;0.70;;;;;;;;;;5113268;28;20099;-77
2022/09/01 13:25:20;;;;;;;3.47;0.70;;;;;;;;;;5113187;28;20030;-77
2022/09/01 13:27:46;;;;;;;8.73;0.70;;;;;;;;;;5113072;28;20497;-77
2022/09/01 13:30:17;;;;;;;2.50;0.50;;;;;;;;;;5113062;28;20045;-78
2022/09/01 13:32:43;;;;;;;4.78;0.75;;;;;;;;;;5112009;28;20023;-77
2022/09/01 13:35:10;;;;;;;0.93;0.60;;;;;;;;;;5113118;28;20094;-77
2022/09/01 13:37:36;;;;;;;2.10;0.60;;;;;;;;;;5113042;28;20027;-77
2022/09/01 13:40:04;;;;;;;4.55;0.75;;;;;;;;;;5108483;28;20050;-77
2022/09/01 13:42:30;;;;;;;11.68;0.88;;;;;;;;;;5092731;28;20031;-77
2022/09/01 13:44:56;;;;;;;4.18;0.50;;;;;;;;;;5091027;28;20072;-77
2022/09/01 13:47:23;;;;;;;4.22;0.70;;;;;;;;;;5092416;28;20020;-77
2022/09/01 13:49:49;;;;;;;1.70;0.55;;;;;;;;;;5092518;28;20105;-77
2022/09/01 13:52:15;;;;;;;1.67;0.55;;;;;;;;;;5090820;28;20035;-77
2022/09/01 13:54:43;;;;;;;5.70;1.00;;;;;;;;;;5092194;28;20024;-77
2022/09/01 13:57:10;;;;;;;3.92;1.33;;;;;;;;;;5092125;28;20085;-77
2022/09/01 13:59:36;;;;;;;4.72;0.80;;;;;;;;;;5092049;28;20734;-77
2022/09/01 14:02:03;;;;;;;1.77;0.60;;;;;;;;;;5092067;28;20063;-77
2022/09/01 14:04:29;;;;;;;2.58;0.80;;;;;;;;;;5092094;28;20031;-77
2022/09/01 14:06:55;;;;;;;2.95;0.52;;;;;;;;;;5092042;28;20020;-78
2022/09/01 14:09:21;;;;;;;4.07;0.82;;;;;;;;;;5091972;28;20097;-77
2022/09/01 14:11:47;;;;;;;1.48;0.60;;;;;;;;;;5090834;28;20031;-77
2022/09/01 14:14:13;;;;;;;5.63;0.57;;;;;;;;;;5091902;28;20126;-77
2022/09/01 14:16:39;;;;;;;0.98;0.50;;;;;;;;;;5091934;28;20020;-77
2022/09/01 14:19:05;;;;;;;6.60;0.70;;;;;;;;;;5094790;28;20023;-77
2022/09/01 14:21:31;;;;;;;1.90;0.52;;;;;;;;;;5112376;28;20365;-78
2022/09/01 14:23:58;;;;;;;1.20;0.60;;;;;;;;;;5112535;28;20073;-77
2022/09/01 14:26:25;;;;;;;2.10;0.55;;;;;;;;;;5112325;28;20099;-77
2022/09/01 14:28:51;;;;;;;2.40;0.93;;;;;;;;;;5110682;28;20496;-77
2022/09/01 14:31:18;;;;;;;7.38;1.05;;;;;;;;;;5110771;28;20122;-77
2022/09/01 14:33:44;;;;;;;3.60;0.60;;;;;;;;;;5112068;28;20016;-77
2022/09/01 14:36:17;;;;;;;6.70;0.70;;;;;;;;;;5112105;28;20480;-77
2022/09/01 14:38:43;;;;;;;2.70;0.70;;;;;;;;;;5111831;28;20027;-77
2022/09/01 14:41:12;;;;;;;2.65;0.50;;;;;;;;;;5111968;28;20173;-77
2022/09/01 14:43:41;;;;;;;1.83;0.68;;;;;;;;;;5110205;28;20023;-78
2022/09/01 14:46:09;;;;;;;2.22;0.70;;;;;;;;;;5112000;28;20077;-77
2022/09/01 14:48:35;;;;;;;1.85;0.50;;;;;;;;;;5111993;28;20019;-78
2022/09/01 14:51:02;;;;;;;3.42;0.50;;;;;;;;;;5111889;28;20040;-78
2022/09/01 14:53:30;;;;;;;6.15;0.85;;;;;;;;;;5110811;28;20043;-77
2022/09/01 14:55:56;;;;;;;3.58;0.70;;;;;;;;;;5112185;28;20043;-77
2022/09/01 14:58:23;;;;;;;1.75;0.60;;;;;;;;;;5111985;28;20026;-77
2022/09/01 15:00:49;;;;;;;2.63;0.60;;;;;;;;;;5112119;28;20125;-78
2022/09/01 15:03:15;;;;;;;2.40;0.70;;;;;;;;;;5110287;28;20110;-77
2022/09/01 15:05:42;;;;;;;0.95;0.60;;;;;;;;;;5112000;28;20031;-77
2022/09/01 15:08:08;;;;;;;2.78;0.60;;;;;;;;;;5111823;28;20024;-78
2022/09/01 15:10:35;;;;;;;8.40;0.85;;;;;;;;;;5111713;28;20087;-77
2022/09/01 15:13:01;;;;;;;9.63;0.70;;;;;;;;;;5111719;28;20051;-77
2022/09/01 15:15:28;;;;;;;1.27;0.50;;;;;;;;;;5110479;28;20070;-77
2022/09/01 15:17:54;;;;;;;1.58;0.52;;;;;;;;;;5111627;28;20020;-78
2022/09/01 15:23:06;;;;;;;7.22;0.82;;;;;;;;;;5112036;28;20097;-78
2022/09/01 15:25:33;;;;;;;3.55;0.70;;;;;;;;;;5111824;28;20491;-77
2022/09/01 15:27:59;;;;;;;4.78;0.52;;;;;;;;;;5110395;28;20098;-78
2022/09/01 15:30:26;;;;;;;5.15;0.80;;;;;;;;;;5111670;28;20038;-78
2022/09/01 15:32:53;;;;;;;3.85;0.60;;;;;;;;;;5110172;28;20020;-78
2022/09/01 15:35:20;;;;;;;7.25;0.73;;;;;;;;;;5110878;28;20020;-87
2022/09/01 15:37:47;;;;;;;5.18;0.70;;;;;;;;;;5112526;28;20024;-87
2022/09/01 15:40:13;;;;;;;4.30;1.00;;;;;;;;;;5106516;28;20479;-87